createdAt,value
2018-12-19T00:00:35.112Z,23.10
2018-12-19T00:03:03.221Z,25.50
2018-12-19T00:05:31.413Z,23.73
2018-12-19T00:07:59.620Z,24.97
2018-12-19T00:10:27.809Z,21.70
2018-12-19T00:12:55.977Z,22.77
2018-12-19T00:15:24.144Z,23.67
2018-12-19T00:17:52.284Z,22.67
2018-12-19T00:20:20.476Z,22.60
2018-12-19T00:22:48.673Z,22.87
2018-12-19T00:25:16.993Z,23.60
2018-12-19T00:27:45.180Z,24.10
2018-12-19T00:30:13.417Z,24.27
2018-12-19T00:32:41.646Z,23.23
2018-12-19T00:35:10.021Z,22.97
2018-12-19T00:37:38.213Z,23.77
2018-12-19T00:40:06.360Z,23.83
2018-12-19T00:42:34.644Z,23.30
2018-12-19T00:45:02.899Z,23.97
2018-12-19T00:47:31.088Z,23.20
2018-12-19T00:49:59.253Z,23.13
2018-12-19T00:52:27.460Z,25.00
2018-12-19T00:54:55.608Z,21.97
2018-12-19T00:57:23.788Z,23.33
2018-12-19T00:59:51.983Z,21.07
2018-12-19T01:02:20.123Z,20.43
2018-12-19T01:04:48.334Z,21.13
2018-12-19T01:07:16.710Z,22.73
2018-12-19T01:09:44.992Z,21.43
2018-12-19T01:12:13.144Z,21.07
2018-12-19T01:14:41.476Z,21.43
2018-12-19T01:17:09.681Z,20.47
2018-12-19T01:19:37.960Z,21.27
2018-12-19T01:22:06.167Z,22.13
2018-12-19T01:24:34.437Z,21.00
2018-12-19T01:27:02.581Z,21.50
2018-12-19T01:29:30.785Z,21.80
2018-12-19T01:31:58.920Z,21.07
2018-12-19T01:34:27.109Z,21.73
2018-12-19T01:36:55.321Z,21.87
2018-12-19T01:39:23.449Z,21.40
2018-12-19T01:41:51.621Z,20.33
2018-12-19T01:44:19.868Z,21.03
2018-12-19T01:46:48.109Z,21.13
2018-12-19T01:49:16.241Z,20.77
2018-12-19T01:51:44.452Z,21.20
2018-12-19T01:54:12.586Z,21.50
2018-12-19T01:56:40.756Z,22.43
2018-12-19T01:59:08.987Z,20.30
2018-12-19T02:01:37.228Z,20.47
2018-12-19T02:04:05.412Z,20.57
2018-12-19T02:06:33.585Z,20.30
2018-12-19T02:09:01.683Z,20.47
2018-12-19T02:11:29.808Z,21.07
2018-12-19T02:13:58.605Z,21.00
2018-12-19T02:16:26.809Z,21.80
2018-12-19T02:18:54.978Z,20.60
2018-12-19T02:21:23.182Z,20.00
2018-12-19T02:23:51.485Z,21.33
2018-12-19T02:26:19.733Z,21.27
2018-12-19T02:28:48.029Z,21.90
2018-12-19T02:31:16.365Z,19.93
2018-12-19T02:33:44.640Z,22.03
2018-12-19T02:36:12.845Z,20.10
2018-12-19T02:38:41.097Z,21.13
2018-12-19T02:41:09.252Z,21.27
2018-12-19T02:43:37.452Z,20.83
2018-12-19T02:46:05.739Z,21.53
2018-12-19T02:48:34.057Z,20.73
2018-12-19T02:51:02.276Z,19.50
2018-12-19T02:53:30.529Z,20.97
2018-12-19T02:55:58.704Z,20.43
2018-12-19T02:58:26.909Z,21.87
2018-12-19T03:00:55.204Z,20.40
2018-12-19T03:03:23.442Z,19.87
2018-12-19T03:05:51.634Z,21.17
2018-12-19T03:08:19.881Z,21.37
2018-12-19T03:10:48.056Z,22.00
2018-12-19T03:13:16.300Z,21.90
2018-12-19T03:15:44.602Z,23.77
2018-12-19T03:18:12.773Z,22.53
2018-12-19T03:20:41.098Z,24.33
2018-12-19T03:23:09.333Z,22.63
2018-12-19T03:25:37.614Z,24.50
2018-12-19T03:28:05.961Z,23.73
2018-12-19T03:30:34.158Z,24.20
2018-12-19T03:33:02.463Z,25.90
2018-12-19T03:35:30.740Z,23.73
2018-12-19T03:37:58.992Z,23.53
2018-12-19T03:40:27.213Z,24.77
2018-12-19T03:42:55.488Z,26.47
2018-12-19T03:45:23.811Z,25.70
2018-12-19T03:47:52.086Z,26.87
2018-12-19T03:50:20.318Z,27.90
2018-12-19T03:52:48.561Z,25.07
2018-12-19T03:55:16.816Z,26.83
2018-12-19T03:57:45.110Z,27.43
2018-12-19T04:00:13.422Z,26.30
2018-12-19T04:02:41.636Z,25.87
2018-12-19T04:05:09.845Z,25.27
2018-12-19T04:07:38.100Z,25.47
2018-12-19T04:10:06.278Z,26.57
2018-12-19T04:12:34.573Z,28.17
2018-12-19T04:15:02.817Z,24.47
2018-12-19T04:17:31.125Z,25.07
2018-12-19T04:19:59.496Z,25.47
2018-12-19T04:22:27.646Z,25.47
2018-12-19T04:24:55.917Z,24.30
2018-12-19T04:27:24.125Z,25.67
2018-12-19T04:29:52.593Z,24.37
2018-12-19T04:32:21.257Z,25.70
2018-12-19T04:34:49.468Z,25.10
2018-12-19T04:37:17.709Z,26.10
2018-12-19T04:39:45.890Z,25.63
2018-12-19T04:42:14.132Z,26.33
2018-12-19T04:44:42.338Z,23.67
2018-12-19T04:47:10.714Z,25.33
2018-12-19T04:49:38.921Z,25.23
2018-12-19T04:52:07.156Z,26.50
2018-12-19T04:54:35.344Z,25.27
2018-12-19T04:57:03.663Z,27.87
2018-12-19T04:59:31.886Z,25.50
2018-12-19T05:02:00.064Z,25.47
2018-12-19T05:04:28.326Z,24.50
2018-12-19T05:06:56.517Z,25.03
2018-12-19T05:09:24.816Z,26.47
2018-12-19T05:11:53.177Z,26.37
2018-12-19T05:14:21.725Z,25.23
2018-12-19T05:16:50.005Z,23.90
2018-12-19T05:19:18.213Z,25.30
2018-12-19T05:21:46.491Z,24.70
2018-12-19T05:24:15.874Z,24.27
2018-12-19T05:26:44.173Z,27.60
2018-12-19T05:29:12.424Z,27.23
2018-12-19T05:31:40.704Z,25.37
2018-12-19T05:34:08.945Z,24.67
2018-12-19T05:36:37.154Z,24.00
2018-12-19T05:39:06.906Z,26.20
2018-12-19T05:41:36.575Z,26.53
2018-12-19T05:44:05.049Z,25.17
2018-12-19T05:46:33.225Z,25.23
2018-12-19T05:49:01.519Z,27.67
2018-12-19T05:51:29.805Z,26.77
2018-12-19T05:53:58.072Z,24.20
2018-12-19T05:56:26.368Z,24.77
2018-12-19T05:58:54.613Z,24.77
2018-12-19T06:01:22.895Z,23.23
2018-12-19T06:03:51.193Z,25.73
2018-12-19T06:06:19.450Z,23.83
2018-12-19T06:08:47.722Z,21.47
2018-12-19T06:11:16.018Z,27.03
2018-12-19T06:13:44.269Z,26.30
2018-12-19T06:16:12.573Z,26.10
2018-12-19T06:18:40.931Z,27.17
2018-12-19T06:21:09.206Z,26.30
2018-12-19T06:23:37.477Z,26.47
2018-12-19T06:26:05.668Z,25.93
2018-12-19T06:28:33.921Z,23.80
2018-12-19T06:31:02.289Z,26.20
2018-12-19T06:33:30.614Z,26.10
2018-12-19T06:35:59.044Z,26.33
2018-12-19T06:38:27.233Z,25.90
2018-12-19T06:40:56.462Z,24.73
2018-12-19T06:43:24.733Z,28.10
2018-12-19T06:45:52.980Z,26.67
2018-12-19T06:48:21.433Z,26.90
2018-12-19T06:50:49.737Z,24.93
2018-12-19T06:53:18.004Z,26.57
2018-12-19T06:55:46.213Z,26.70
2018-12-19T06:58:14.489Z,26.60
2018-12-19T07:00:42.739Z,26.40
2018-12-19T07:03:11.024Z,26.10
2018-12-19T07:05:39.189Z,25.67
2018-12-19T07:08:07.463Z,24.57
2018-12-19T07:10:39.059Z,26.53
2018-12-19T07:13:07.281Z,27.03
2018-12-19T07:15:35.534Z,25.10
2018-12-19T07:18:03.749Z,28.27
2018-12-19T07:20:32.012Z,24.83
2018-12-19T07:23:00.300Z,26.20
2018-12-19T07:25:28.561Z,27.37
2018-12-19T07:27:56.921Z,24.80
2018-12-19T07:30:25.153Z,26.30
2018-12-19T07:32:53.385Z,26.50
2018-12-19T07:35:21.560Z,26.77
2018-12-19T07:37:49.761Z,26.23
2018-12-19T07:40:18.030Z,26.10
2018-12-19T07:42:46.280Z,23.30
2018-12-19T07:45:14.490Z,23.90
2018-12-19T07:47:43.770Z,27.07
2018-12-19T07:50:12.041Z,25.40
2018-12-19T07:52:40.369Z,25.07
2018-12-19T07:55:08.593Z,24.60
2018-12-19T07:57:36.875Z,25.23
2018-12-19T08:00:05.238Z,25.13
2018-12-19T08:02:33.426Z,23.87
2018-12-19T08:05:01.637Z,23.83
2018-12-19T08:07:29.881Z,22.87
2018-12-19T08:09:58.133Z,25.90
2018-12-19T08:12:27.037Z,25.67
2018-12-19T08:15:01.457Z,25.67
2018-12-19T08:17:29.726Z,23.53
2018-12-19T08:19:58.104Z,25.43
2018-12-19T08:22:26.418Z,25.27
2018-12-19T08:24:54.669Z,25.60
2018-12-19T08:27:22.921Z,24.50
2018-12-19T08:29:51.181Z,25.17
2018-12-19T08:32:19.373Z,24.50
2018-12-19T08:34:47.549Z,26.57
2018-12-19T08:37:15.761Z,25.67
2018-12-19T08:39:44.000Z,23.63
2018-12-19T08:42:12.237Z,23.53
2018-12-19T08:44:40.492Z,24.77
2018-12-19T08:47:08.728Z,24.90
2018-12-19T08:49:37.010Z,26.03
2018-12-19T08:52:05.301Z,23.60
2018-12-19T08:54:33.561Z,24.40
2018-12-19T08:57:01.850Z,24.87
2018-12-19T08:59:30.125Z,26.60
2018-12-19T09:01:58.377Z,24.47
2018-12-19T09:04:26.568Z,23.77
2018-12-19T09:06:54.893Z,25.17
2018-12-19T09:09:23.119Z,23.43
2018-12-19T09:11:51.401Z,23.77
2018-12-19T09:14:19.690Z,24.73
2018-12-19T09:16:47.934Z,25.00
2018-12-19T09:19:16.138Z,24.20
2018-12-19T09:21:44.418Z,25.50
2018-12-19T09:24:12.657Z,22.87
2018-12-19T09:26:40.830Z,23.80
2018-12-19T09:29:09.032Z,24.53
2018-12-19T09:31:37.334Z,22.67
2018-12-19T09:34:05.565Z,24.30
2018-12-19T09:36:33.865Z,23.73
2018-12-19T09:39:02.197Z,23.43
2018-12-19T09:41:30.429Z,23.60
2018-12-19T09:43:58.805Z,24.13
2018-12-19T09:46:27.070Z,24.90
2018-12-19T09:48:55.321Z,24.60
2018-12-19T09:51:23.654Z,23.07
2018-12-19T09:53:51.945Z,24.27
2018-12-19T09:56:20.269Z,25.10
2018-12-19T09:58:48.601Z,24.67
2018-12-19T10:01:16.801Z,24.50
2018-12-19T10:03:45.072Z,23.80
2018-12-19T10:06:13.297Z,22.87
2018-12-19T10:08:41.554Z,24.03
2018-12-19T10:11:09.803Z,23.83
2018-12-19T10:13:38.173Z,24.70
2018-12-19T10:16:06.364Z,21.27
2018-12-19T10:18:34.624Z,24.63
2018-12-19T10:21:03.017Z,23.07
2018-12-19T10:23:31.330Z,23.67
2018-12-19T10:26:05.045Z,23.10
2018-12-19T10:28:34.963Z,23.30
2018-12-19T10:31:03.390Z,23.00
2018-12-19T10:33:31.684Z,23.13
2018-12-19T10:36:00.045Z,21.07
2018-12-19T10:38:28.218Z,21.17
2018-12-19T10:40:56.502Z,23.53
2018-12-19T10:43:24.824Z,22.23
2018-12-19T10:45:53.077Z,20.27
2018-12-19T10:48:21.345Z,21.33
2018-12-19T10:50:49.625Z,21.43
2018-12-19T10:53:17.870Z,22.23
2018-12-19T10:55:46.171Z,20.63
2018-12-19T10:58:14.533Z,21.07
2018-12-19T11:00:48.256Z,20.10
2018-12-19T11:03:16.488Z,21.07
2018-12-19T11:05:44.788Z,19.20
2018-12-19T11:08:13.112Z,21.50
2018-12-19T11:10:41.410Z,19.83
2018-12-19T11:13:09.586Z,21.10
2018-12-19T11:15:37.802Z,19.10
2018-12-19T11:18:06.060Z,18.70
2018-12-19T11:20:34.396Z,19.10
2018-12-19T11:23:02.635Z,18.70
2018-12-19T11:25:30.972Z,20.30
2018-12-19T11:27:59.152Z,19.17
2018-12-19T11:30:27.441Z,21.20
2018-12-19T11:32:55.740Z,22.50
2018-12-19T11:35:23.981Z,20.93
2018-12-19T11:37:52.304Z,19.93
2018-12-19T11:40:20.529Z,20.30
2018-12-19T11:42:48.807Z,21.00
2018-12-19T11:45:17.149Z,20.20
2018-12-19T11:47:45.385Z,21.70
2018-12-19T11:50:13.633Z,21.20
2018-12-19T11:52:41.928Z,19.77
2018-12-19T11:55:10.181Z,20.30
2018-12-19T11:57:38.653Z,21.60
2018-12-19T12:00:08.561Z,20.80
2018-12-19T12:02:36.758Z,20.63
2018-12-19T12:05:05.558Z,21.00
2018-12-19T12:07:33.929Z,20.70
2018-12-19T12:10:02.205Z,21.00
2018-12-19T12:12:30.501Z,19.67
2018-12-19T12:14:58.808Z,23.43
2018-12-19T12:17:27.017Z,22.40
2018-12-19T12:19:55.193Z,22.87
2018-12-19T12:22:23.501Z,22.13
2018-12-19T12:24:51.745Z,22.43
2018-12-19T12:27:20.065Z,25.07
2018-12-19T12:29:48.317Z,23.70
2018-12-19T12:32:16.573Z,20.83
2018-12-19T12:34:44.853Z,19.67
2018-12-19T12:37:13.157Z,20.20
2018-12-19T12:39:41.413Z,20.83
2018-12-19T12:42:09.673Z,20.33
2018-12-19T12:44:38.372Z,25.50
2018-12-19T12:47:06.717Z,21.43
2018-12-19T12:49:34.973Z,21.87
2018-12-19T12:52:03.246Z,20.70
2018-12-19T12:54:31.502Z,21.73
2018-12-19T12:56:59.750Z,27.80
2018-12-19T12:59:28.043Z,20.63
2018-12-19T13:01:56.289Z,21.23
2018-12-19T13:04:25.125Z,21.00
2018-12-19T13:06:53.394Z,21.10
2018-12-19T13:09:21.632Z,19.27
2018-12-19T13:11:49.918Z,19.20
2018-12-19T13:14:18.401Z,21.80
2018-12-19T13:16:46.661Z,21.13
2018-12-19T13:19:15.143Z,21.70
2018-12-19T13:21:43.467Z,22.03
2018-12-19T13:24:11.743Z,25.97
2018-12-19T13:26:39.976Z,23.50
2018-12-19T13:29:08.276Z,23.50
2018-12-19T13:31:36.533Z,22.13
2018-12-19T13:34:04.835Z,20.87
2018-12-19T13:36:33.102Z,22.27
2018-12-19T13:39:01.409Z,20.70
2018-12-19T13:41:29.665Z,21.67
2018-12-19T13:43:57.976Z,20.90
2018-12-19T13:46:26.245Z,21.17
2018-12-19T13:48:54.464Z,22.30
2018-12-19T13:51:22.772Z,21.67
2018-12-19T13:53:51.092Z,20.20
2018-12-19T13:56:19.322Z,23.50
2018-12-19T13:58:48.025Z,29.73
2018-12-19T14:01:16.450Z,25.10
2018-12-19T14:03:44.799Z,25.17
2018-12-19T14:06:13.296Z,25.93
2018-12-19T14:08:41.521Z,23.37
2018-12-19T14:11:09.768Z,24.53
2018-12-19T14:13:38.071Z,21.63
2018-12-19T14:16:06.308Z,21.13
2018-12-19T14:18:34.636Z,20.87
2018-12-19T14:21:03.600Z,21.40
2018-12-19T14:23:31.872Z,22.27
2018-12-19T14:26:00.240Z,22.20
2018-12-19T14:28:29.560Z,20.20
2018-12-19T14:30:58.206Z,21.23
2018-12-19T14:33:27.248Z,21.83
2018-12-19T14:35:56.036Z,22.83
2018-12-19T14:38:24.386Z,20.90
2018-12-19T14:40:52.847Z,21.63
2018-12-19T14:43:21.066Z,23.60
2018-12-19T14:45:52.723Z,22.63
2018-12-19T14:48:21.133Z,21.03
2018-12-19T14:50:49.490Z,22.27
2018-12-19T14:53:17.726Z,23.63
2018-12-19T14:55:46.061Z,21.23
2018-12-19T14:58:14.500Z,21.80
2018-12-19T15:00:42.788Z,23.60
2018-12-19T15:03:11.141Z,28.57
2018-12-19T15:05:39.920Z,24.57
2018-12-19T15:08:09.622Z,23.33
2018-12-19T15:10:37.972Z,22.33
2018-12-19T15:13:06.185Z,20.57
2018-12-19T15:15:34.498Z,22.97
2018-12-19T15:18:02.821Z,20.60
2018-12-19T15:20:31.033Z,22.40
2018-12-19T15:22:59.361Z,22.60
2018-12-19T15:25:27.625Z,24.03
2018-12-19T15:27:55.927Z,22.43
2018-12-19T15:30:24.186Z,22.43
2018-12-19T15:32:52.721Z,22.23
2018-12-19T15:35:20.977Z,22.43
2018-12-19T15:37:49.462Z,21.87
2018-12-19T15:40:17.899Z,23.40
2018-12-19T15:42:46.360Z,21.17
2018-12-19T15:45:15.622Z,21.40
2018-12-19T15:47:44.543Z,24.37
2018-12-19T15:50:13.155Z,22.33
2018-12-19T15:52:41.405Z,21.87
2018-12-19T15:55:09.669Z,21.43
2018-12-19T15:57:37.979Z,22.20
2018-12-19T16:00:08.465Z,22.53
2018-12-19T16:02:36.850Z,22.70
2018-12-19T16:05:05.233Z,22.33
2018-12-19T16:07:33.457Z,25.43
2018-12-19T16:10:01.681Z,26.13
2018-12-19T16:12:29.941Z,24.40
2018-12-19T16:14:58.308Z,27.80
2018-12-19T16:17:26.638Z,27.37
2018-12-19T16:19:54.918Z,27.27
2018-12-19T16:22:23.130Z,28.57
2018-12-19T16:24:51.445Z,27.47
2018-12-19T16:27:19.682Z,28.93
2018-12-19T16:29:48.408Z,26.77
2018-12-19T16:32:17.579Z,28.17
2018-12-19T16:34:45.870Z,24.30
2018-12-19T16:37:14.185Z,26.20
2018-12-19T16:39:42.411Z,26.67
2018-12-19T16:42:10.669Z,25.73
2018-12-19T16:44:39.004Z,25.00
2018-12-19T16:47:07.847Z,24.00
2018-12-19T16:49:36.106Z,23.93
2018-12-19T16:52:04.644Z,26.23
2018-12-19T16:54:34.146Z,23.13
2018-12-19T16:57:02.729Z,24.03
2018-12-19T16:59:30.973Z,25.80
2018-12-19T17:01:59.356Z,26.53
2018-12-19T17:04:27.596Z,26.23
2018-12-19T17:06:57.265Z,25.37
2018-12-19T17:09:25.853Z,24.33
2018-12-19T17:11:54.243Z,25.20
2018-12-19T17:14:22.587Z,26.90
2018-12-19T17:16:50.863Z,26.30
2018-12-19T17:19:19.216Z,25.13
2018-12-19T17:21:48.550Z,25.03
2018-12-19T17:24:17.137Z,26.70
2018-12-19T17:26:45.640Z,25.90
2018-12-19T17:29:13.973Z,26.80
2018-12-19T17:31:42.340Z,28.63
2018-12-19T17:34:10.624Z,26.97
2018-12-19T17:36:38.897Z,28.37
2018-12-19T17:39:07.569Z,28.73
2018-12-19T17:41:35.945Z,28.30
2018-12-19T17:44:05.130Z,28.37
2018-12-19T17:46:33.461Z,28.43
2018-12-19T17:49:01.684Z,27.23
2018-12-19T17:51:29.953Z,27.67
2018-12-19T17:53:58.270Z,26.40
2018-12-19T17:56:26.577Z,27.80
2018-12-19T17:58:54.817Z,26.23
2018-12-19T18:01:23.203Z,27.63
2018-12-19T18:03:51.473Z,27.47
2018-12-19T18:06:19.712Z,27.60
2018-12-19T18:08:47.889Z,27.93
2018-12-19T18:11:16.232Z,28.93
2018-12-19T18:13:44.713Z,27.97
2018-12-19T18:16:13.021Z,27.60
2018-12-19T18:18:41.185Z,29.03
2018-12-19T18:21:09.379Z,26.73
2018-12-19T18:23:37.657Z,26.43
2018-12-19T18:26:05.921Z,26.07
2018-12-19T18:28:34.221Z,27.20
2018-12-19T18:31:02.512Z,24.10
2018-12-19T18:33:30.808Z,25.27
2018-12-19T18:35:59.020Z,25.60
2018-12-19T18:38:27.330Z,25.70
2018-12-19T18:40:55.647Z,27.57
2018-12-19T18:43:23.868Z,27.77
2018-12-19T18:45:52.191Z,25.80
2018-12-19T18:48:20.432Z,23.33
2018-12-19T18:50:48.708Z,26.33
2018-12-19T18:53:17.505Z,27.27
2018-12-19T18:55:45.765Z,23.80
2018-12-19T18:58:14.062Z,25.70
2018-12-19T19:00:44.352Z,24.53
2018-12-19T19:03:12.782Z,23.00
2018-12-19T19:05:42.119Z,24.87
2018-12-19T19:08:10.332Z,24.87
2018-12-19T19:10:38.672Z,24.93
2018-12-19T19:13:07.767Z,25.50
2018-12-19T19:15:36.254Z,25.80
2018-12-19T19:18:04.581Z,26.87
2018-12-19T19:20:32.806Z,25.27
2018-12-19T19:23:01.149Z,27.60
2018-12-19T19:25:29.391Z,27.73
2018-12-19T19:27:57.629Z,27.80
2018-12-19T19:30:25.970Z,27.47
2018-12-19T19:32:54.290Z,26.63
2018-12-19T19:35:22.588Z,26.80
2018-12-19T19:37:50.906Z,27.30
2018-12-19T19:40:19.145Z,28.40
2018-12-19T19:42:47.445Z,26.23
2018-12-19T19:45:15.790Z,27.17
2018-12-19T19:47:44.076Z,26.57
2018-12-19T19:50:12.346Z,27.80
2018-12-19T19:52:40.729Z,25.77
2018-12-19T19:55:09.014Z,27.77
2018-12-19T19:57:37.432Z,24.73
2018-12-19T20:00:07.746Z,28.50
2018-12-19T20:02:35.991Z,26.77
2018-12-19T20:05:04.677Z,26.70
2018-12-19T20:07:33.027Z,27.57
2018-12-19T20:10:01.327Z,26.67
2018-12-19T20:12:29.580Z,26.87
2018-12-19T20:14:58.578Z,25.43
2018-12-19T20:17:27.785Z,27.93
2018-12-19T20:19:56.039Z,26.30
2018-12-19T20:22:24.326Z,27.07
2018-12-19T20:24:52.590Z,25.47
2018-12-19T20:27:20.876Z,27.03
2018-12-19T20:29:49.200Z,25.53
2018-12-19T20:32:17.594Z,26.13
2018-12-19T20:34:45.916Z,25.90
2018-12-19T20:37:14.304Z,27.97
2018-12-19T20:39:42.556Z,26.77
2018-12-19T20:42:10.893Z,28.10
2018-12-19T20:44:39.147Z,28.87
2018-12-19T20:47:07.384Z,27.77
2018-12-19T20:49:35.654Z,30.70
2018-12-19T20:52:03.975Z,28.37
2018-12-19T20:54:32.266Z,28.83
2018-12-19T20:57:00.675Z,27.63
2018-12-19T20:59:28.997Z,27.17
2018-12-19T21:01:57.412Z,27.67
2018-12-19T21:04:25.634Z,26.97
2018-12-19T21:06:53.942Z,28.47
2018-12-19T21:09:22.295Z,27.50
2018-12-19T21:11:50.619Z,25.77
2018-12-19T21:14:18.912Z,27.23
2018-12-19T21:16:52.641Z,25.83
2018-12-19T21:19:20.971Z,27.70
2018-12-19T21:21:49.264Z,25.57
2018-12-19T21:24:17.469Z,25.67
2018-12-19T21:26:45.770Z,27.03
2018-12-19T21:29:14.331Z,26.87
2018-12-19T21:31:42.616Z,26.70
2018-12-19T21:34:10.886Z,28.00
2018-12-19T21:36:39.143Z,29.00
2018-12-19T21:39:09.598Z,27.30
2018-12-19T21:41:37.873Z,28.83
2018-12-19T21:44:06.337Z,27.60
2018-12-19T21:46:34.588Z,25.67
2018-12-19T21:49:02.903Z,27.43
2018-12-19T21:51:31.310Z,27.10
2018-12-19T21:53:59.734Z,28.13
2018-12-19T21:56:28.051Z,25.77
2018-12-19T21:58:56.495Z,32.00
2018-12-19T22:01:24.764Z,31.90
2018-12-19T22:03:53.069Z,32.00
2018-12-19T22:06:21.308Z,32.97
2018-12-19T22:08:49.506Z,35.63
2018-12-19T22:11:17.801Z,33.60
2018-12-19T22:13:46.034Z,32.53
2018-12-19T22:16:19.510Z,29.57
2018-12-19T22:18:48.117Z,29.67
2018-12-19T22:21:16.856Z,30.07
2018-12-19T22:23:45.248Z,27.60
2018-12-19T22:26:13.448Z,26.97
2018-12-19T22:28:41.792Z,27.60
2018-12-19T22:31:10.045Z,27.90
2018-12-19T22:33:38.311Z,27.50
2018-12-19T22:36:06.548Z,27.80
2018-12-19T22:38:34.889Z,26.37
2018-12-19T22:41:03.119Z,27.50
2018-12-19T22:43:31.402Z,26.47
2018-12-19T22:45:59.711Z,27.57
2018-12-19T22:48:28.055Z,29.83
2018-12-19T22:50:56.338Z,27.93
2018-12-19T22:53:24.716Z,28.10
2018-12-19T22:55:52.998Z,27.57
2018-12-19T22:58:21.352Z,28.23
2018-12-19T23:00:58.892Z,29.00
2018-12-19T23:03:32.629Z,28.27
2018-12-19T23:06:00.934Z,27.77
2018-12-19T23:08:29.304Z,28.90
2018-12-19T23:10:57.487Z,28.87
2018-12-19T23:13:25.780Z,28.23
2018-12-19T23:15:54.157Z,27.60
2018-12-19T23:18:26.923Z,27.47
2018-12-19T23:20:55.641Z,27.57
2018-12-19T23:23:23.891Z,27.57
2018-12-19T23:25:52.217Z,27.27
2018-12-19T23:28:20.522Z,26.13
2018-12-19T23:30:48.869Z,27.30
2018-12-19T23:33:17.105Z,27.63
2018-12-19T23:35:45.679Z,26.87
2018-12-19T23:38:13.961Z,29.63
2018-12-19T23:40:42.228Z,25.97
2018-12-19T23:43:10.505Z,24.23
2018-12-19T23:45:38.765Z,27.30
2018-12-19T23:48:07.180Z,26.60
2018-12-19T23:50:35.418Z,26.83
2018-12-19T23:53:03.803Z,27.40
2018-12-19T23:55:32.028Z,26.13
2018-12-19T23:58:00.498Z,26.23
